SWR40 LSZH-KLAX
Flight info
| Callsign | SWR40 |
|---|---|
| Flight time | N/A |
| Altitude | 30000 |
| Route | VEBIT T10 TORPA DCT REKLA DCT RLP DCT ROTSI DCT KOTUN DCT AMAXA DCT VESAN DCT RATUK DCT SOVAT L613 LEHOC DCT INPIP DCT TLA DCT GOW DCT ERAKA/M084F320 DCT 63N020W 67N030W 69N040W 70N050W 70N060W/M084F340 DCT ADSAM/N0487F340 DCT 69N070W 68N080W 65N092W 60N101W DCT MEETO Q896 YQL/N0476F360 J540 STIGS DCT REO J7 FMG/N0476F350 DCT FRASR DCT FIM SADDE8 |
| Aircraft | B77W/H-SDE1E2E3FGHIJ2J3J4J5M1RWXY/LB1D1 |
Departure
| Time | 2026-05-08 04:22 |
|---|---|
| Airport | Zürich Airport (LSZH) |
Arrival
| Time | N/A |
|---|---|
| Airport | Los Angeles International Airport (KLAX) |
| Time | Latitude | Longitude | Altitude | Speed | Heading |
|---|---|---|---|---|---|
| 2026-05-08 04:02 | 47.46030 | 8.55735 | 1415 ft | 0 kts | 6° |
| 2026-05-08 04:14 | 47.46024 | 8.55734 | 1407 ft | 4 kts | 6° |
| 2026-05-08 04:14 | 47.45997 | 8.55730 | 1411 ft | 4 kts | 9° |
| 2026-05-08 04:15 | 47.45973 | 8.55723 | 1413 ft | 4 kts | 17° |
| 2026-05-08 04:15 | 47.45954 | 8.55704 | 1416 ft | 4 kts | 71° |
| 2026-05-08 04:15 | 47.45952 | 8.55666 | 1413 ft | 4 kts | 98° |
| 2026-05-08 04:15 | 47.45956 | 8.55627 | 1411 ft | 4 kts | 98° |
| 2026-05-08 04:16 | 47.45957 | 8.55619 | 1406 ft | 1 kts | 96° |
| 2026-05-08 04:18 | 47.45956 | 8.55629 | 1411 ft | 6 kts | 96° |
| 2026-05-08 04:18 | 47.45948 | 8.55754 | 1413 ft | 14 kts | 95° |
| 2026-05-08 04:18 | 47.45936 | 8.55897 | 1416 ft | 14 kts | 98° |
| 2026-05-08 04:19 | 47.45925 | 8.56042 | 1416 ft | 14 kts | 92° |
| 2026-05-08 04:19 | 47.45917 | 8.56188 | 1416 ft | 14 kts | 97° |
| 2026-05-08 04:19 | 47.45952 | 8.56306 | 1423 ft | 14 kts | 20° |
| 2026-05-08 04:19 | 47.46050 | 8.56332 | 1420 ft | 14 kts | 14° |
| 2026-05-08 04:20 | 47.46122 | 8.56416 | 1423 ft | 8 kts | 45° |
| 2026-05-08 04:20 | 47.46157 | 8.56408 | 1423 ft | 0 kts | 318° |
| 2026-05-08 04:21 | 47.46157 | 8.56407 | 1423 ft | 2 kts | 318° |
| 2026-05-08 04:21 | 47.46358 | 8.56135 | 1411 ft | 81 kts | 317° |
| 2026-05-08 04:21 | 47.46977 | 8.55289 | 1403 ft | 160 kts | 317° |
| 2026-05-08 04:22 | 47.47943 | 8.53972 | 1629 ft | 203 kts | 317° |
| 2026-05-08 04:22 | 47.48976 | 8.52616 | 2728 ft | 201 kts | 323° |
| 2026-05-08 04:22 | 47.50161 | 8.51410 | 3471 ft | 212 kts | 330° |
| 2026-05-08 04:22 | 47.51451 | 8.50306 | 4112 ft | 215 kts | 330° |
| 2026-05-08 04:23 | 47.52653 | 8.48978 | 4411 ft | 220 kts | 310° |
| 2026-05-08 04:23 | 47.53207 | 8.47725 | 4628 ft | 221 kts | 293° |
| 2026-05-08 04:23 | 47.53533 | 8.45512 | 4975 ft | 221 kts | 267° |
| 2026-05-08 04:23 | 47.53240 | 8.43296 | 5377 ft | 219 kts | 249° |
| 2026-05-08 04:24 | 47.52642 | 8.41227 | 5765 ft | 219 kts | 244° |
| 2026-05-08 04:24 | 47.51863 | 8.39318 | 6104 ft | 218 kts | 223° |
| 2026-05-08 04:24 | 47.50517 | 8.38321 | 6286 ft | 221 kts | 191° |
| 2026-05-08 04:24 | 47.49000 | 8.37920 | 6564 ft | 227 kts | 193° |
| 2026-05-08 04:25 | 47.47402 | 8.37384 | 6700 ft | 244 kts | 194° |
| 2026-05-08 04:25 | 47.45695 | 8.36809 | 6969 ft | 257 kts | 194° |
| 2026-05-08 04:25 | 47.43917 | 8.36223 | 7321 ft | 267 kts | 194° |
| 2026-05-08 04:25 | 47.42077 | 8.35621 | 7810 ft | 273 kts | 194° |
| 2026-05-08 04:26 | 47.40232 | 8.34985 | 8382 ft | 272 kts | 200° |
| 2026-05-08 04:26 | 47.38626 | 8.33594 | 8775 ft | 271 kts | 232° |
| 2026-05-08 04:26 | 47.37749 | 8.31173 | 9305 ft | 267 kts | 250° |
| 2026-05-08 04:26 | 47.36982 | 8.28659 | 9762 ft | 271 kts | 239° |
| 2026-05-08 04:27 | 47.35992 | 8.26291 | 10290 ft | 273 kts | 240° |
| 2026-05-08 04:27 | 47.35054 | 8.23761 | 10494 ft | 291 kts | 243° |
| 2026-05-08 04:27 | 47.34108 | 8.21027 | 10656 ft | 309 kts | 243° |
| 2026-05-08 04:27 | 47.33089 | 8.18114 | 10801 ft | 329 kts | 243° |
| 2026-05-08 04:28 | 47.32002 | 8.15041 | 10989 ft | 346 kts | 242° |
| 2026-05-08 04:28 | 47.30871 | 8.11840 | 11365 ft | 358 kts | 243° |
| 2026-05-08 04:28 | 47.29711 | 8.08548 | 11849 ft | 365 kts | 242° |
| 2026-05-08 04:28 | 47.28525 | 8.05194 | 12430 ft | 371 kts | 242° |
| 2026-05-08 04:29 | 47.27421 | 8.01840 | 13470 ft | 356 kts | 250° |
| 2026-05-08 04:29 | 47.27031 | 7.98264 | 14025 ft | 359 kts | 275° |
| 2026-05-08 04:29 | 47.27528 | 7.94675 | 14544 ft | 358 kts | 283° |
| 2026-05-08 04:29 | 47.27987 | 7.91041 | 14903 ft | 365 kts | 276° |
| 2026-05-08 04:30 | 47.28279 | 7.87318 | 15523 ft | 366 kts | 275° |
| 2026-05-08 04:30 | 47.28556 | 7.83589 | 16223 ft | 367 kts | 276° |
| 2026-05-08 04:30 | 47.28860 | 7.79846 | 16850 ft | 370 kts | 276° |
| 2026-05-08 04:30 | 47.29191 | 7.76074 | 17431 ft | 373 kts | 277° |
| 2026-05-08 04:31 | 47.29539 | 7.72268 | 18026 ft | 377 kts | 277° |
| 2026-05-08 04:31 | 47.29893 | 7.68430 | 18592 ft | 380 kts | 277° |
| 2026-05-08 04:31 | 47.30255 | 7.64566 | 19131 ft | 382 kts | 278° |
| 2026-05-08 04:31 | 47.30811 | 7.60727 | 19655 ft | 385 kts | 285° |
| 2026-05-08 04:32 | 47.31667 | 7.56973 | 20176 ft | 388 kts | 288° |
| 2026-05-08 04:32 | 47.32530 | 7.53193 | 20695 ft | 390 kts | 287° |
| 2026-05-08 04:32 | 47.33369 | 7.49372 | 21198 ft | 393 kts | 286° |
| 2026-05-08 04:32 | 47.34204 | 7.45517 | 21670 ft | 397 kts | 286° |
| 2026-05-08 04:33 | 47.35046 | 7.41621 | 22140 ft | 400 kts | 286° |
| 2026-05-08 04:33 | 47.35894 | 7.37697 | 22682 ft | 402 kts | 286° |
| 2026-05-08 04:33 | 47.36746 | 7.33757 | 23220 ft | 404 kts | 286° |
| 2026-05-08 04:33 | 47.37603 | 7.29795 | 23683 ft | 407 kts | 285° |
| 2026-05-08 04:34 | 47.38465 | 7.25803 | 24099 ft | 410 kts | 285° |
| 2026-05-08 04:34 | 47.39330 | 7.21788 | 24515 ft | 411 kts | 285° |
| 2026-05-08 04:34 | 47.40197 | 7.17754 | 24924 ft | 413 kts | 285° |
| 2026-05-08 04:34 | 47.41024 | 7.13672 | 25332 ft | 415 kts | 282° |
| 2026-05-08 04:35 | 47.41687 | 7.09532 | 25709 ft | 416 kts | 280° |
| 2026-05-08 04:35 | 47.42277 | 7.05327 | 26099 ft | 419 kts | 279° |
| 2026-05-08 04:35 | 47.42857 | 7.01098 | 26461 ft | 421 kts | 279° |
| 2026-05-08 04:35 | 47.43448 | 6.96845 | 26848 ft | 423 kts | 279° |
| 2026-05-08 04:36 | 47.44051 | 6.92589 | 27240 ft | 425 kts | 279° |
| 2026-05-08 04:36 | 47.44668 | 6.88298 | 27615 ft | 427 kts | 280° |
| 2026-05-08 04:36 | 47.45292 | 6.83996 | 27970 ft | 429 kts | 280° |
| 2026-05-08 04:36 | 47.45918 | 6.79671 | 28320 ft | 431 kts | 279° |
| 2026-05-08 04:37 | 47.46547 | 6.75325 | 28666 ft | 434 kts | 279° |
| 2026-05-08 04:37 | 47.47176 | 6.70957 | 29004 ft | 435 kts | 279° |
| 2026-05-08 04:37 | 47.47802 | 6.66567 | 29342 ft | 437 kts | 279° |
| 2026-05-08 04:37 | 47.48289 | 6.62130 | 29686 ft | 437 kts | 274° |
| 2026-05-08 04:38 | 47.48597 | 6.57670 | 30025 ft | 438 kts | 273° |
| 2026-05-08 04:38 | 47.48889 | 6.53156 | 30043 ft | 443 kts | 273° |
| 2026-05-08 04:38 | 47.49503 | 6.44069 | 30044 ft | 442 kts | 274° |
| 2026-05-08 04:39 | 47.50141 | 6.35053 | 30057 ft | 440 kts | 274° |
| 2026-05-08 04:39 | 47.50781 | 6.26061 | 30066 ft | 439 kts | 274° |
| 2026-05-08 04:40 | 47.51414 | 6.17057 | 30055 ft | 440 kts | 274° |
| 2026-05-08 04:40 | 47.52040 | 6.08042 | 30054 ft | 441 kts | 274° |
| 2026-05-08 04:41 | 47.52661 | 5.99001 | 30057 ft | 442 kts | 274° |
| 2026-05-08 04:41 | 47.53344 | 5.89945 | 30040 ft | 442 kts | 279° |
| 2026-05-08 04:42 | 47.54271 | 5.85597 | 30057 ft | 446 kts | 292° |
| 2026-05-08 04:42 | 47.55809 | 5.81586 | 30052 ft | 451 kts | 302° |
| 2026-05-08 04:42 | 47.60010 | 5.74597 | 30057 ft | 456 kts | 310° |
| 2026-05-08 04:43 | 47.64356 | 5.67709 | 30059 ft | 458 kts | 309° |
| 2026-05-08 04:43 | 47.68676 | 5.60735 | 30056 ft | 459 kts | 309° |
| 2026-05-08 04:44 | 47.72987 | 5.53725 | 30046 ft | 459 kts | 309° |
| 2026-05-08 04:44 | 47.77260 | 5.46760 | 30059 ft | 459 kts | 309° |
| 2026-05-08 04:45 | 47.81550 | 5.39751 | 30049 ft | 458 kts | 309° |
| 2026-05-08 04:45 | 47.85830 | 5.32739 | 30050 ft | 457 kts | 309° |
| 2026-05-08 04:46 | 47.90110 | 5.25713 | 30059 ft | 456 kts | 309° |
| 2026-05-08 04:46 | 47.94377 | 5.18702 | 30054 ft | 456 kts | 309° |
| 2026-05-08 04:47 | 47.98646 | 5.11686 | 30056 ft | 456 kts | 309° |
| 2026-05-08 04:47 | 48.02913 | 5.04653 | 30065 ft | 457 kts | 309° |
| 2026-05-08 04:48 | 48.07177 | 4.97603 | 30052 ft | 458 kts | 309° |
| 2026-05-08 04:48 | 48.11453 | 4.90515 | 30052 ft | 458 kts | 309° |
| 2026-05-08 04:49 | 48.15723 | 4.83415 | 30056 ft | 459 kts | 309° |
| 2026-05-08 04:49 | 48.19994 | 4.76296 | 30042 ft | 459 kts | 309° |
| 2026-05-08 04:50 | 48.24259 | 4.69168 | 30067 ft | 459 kts | 309° |
| 2026-05-08 04:50 | 48.28519 | 4.62031 | 30052 ft | 459 kts | 309° |
| 2026-05-08 04:51 | 48.32762 | 4.54883 | 30058 ft | 459 kts | 309° |
| 2026-05-08 04:51 | 48.37003 | 4.47711 | 30065 ft | 458 kts | 309° |
| 2026-05-08 04:52 | 48.41231 | 4.40543 | 30044 ft | 457 kts | 309° |
| 2026-05-08 04:52 | 48.45450 | 4.33373 | 30037 ft | 457 kts | 309° |
| 2026-05-08 04:53 | 48.49634 | 4.26242 | 30043 ft | 457 kts | 308° |
| 2026-05-08 04:53 | 48.53842 | 4.19053 | 30046 ft | 457 kts | 308° |
| 2026-05-08 04:54 | 48.58048 | 4.11844 | 30057 ft | 458 kts | 308° |
| 2026-05-08 04:54 | 48.62256 | 4.04614 | 30050 ft | 458 kts | 308° |
| 2026-05-08 04:55 | 48.66463 | 3.97366 | 30049 ft | 459 kts | 308° |
| 2026-05-08 04:55 | 48.70668 | 3.90113 | 30047 ft | 459 kts | 309° |
| 2026-05-08 04:56 | 48.75417 | 3.83615 | 30044 ft | 463 kts | 322° |
| 2026-05-08 04:56 | 48.80707 | 3.78033 | 30047 ft | 463 kts | 322° |
| 2026-05-08 04:57 | 48.85944 | 3.72341 | 30053 ft | 463 kts | 321° |
| 2026-05-08 04:57 | 48.91163 | 3.66612 | 30051 ft | 463 kts | 321° |
| 2026-05-08 04:58 | 48.96413 | 3.60834 | 30054 ft | 463 kts | 321° |
| 2026-05-08 04:58 | 49.01630 | 3.55081 | 30051 ft | 463 kts | 321° |
| 2026-05-08 04:59 | 49.06849 | 3.49314 | 30059 ft | 463 kts | 321° |
| 2026-05-08 04:59 | 49.12073 | 3.43528 | 30060 ft | 463 kts | 321° |
| 2026-05-08 05:00 | 49.17256 | 3.37770 | 30052 ft | 463 kts | 321° |
| 2026-05-08 05:00 | 49.22463 | 3.31971 | 30060 ft | 463 kts | 321° |
| 2026-05-08 05:01 | 49.27667 | 3.26159 | 30059 ft | 463 kts | 321° |
| 2026-05-08 05:01 | 49.32867 | 3.20336 | 30056 ft | 463 kts | 321° |
| 2026-05-08 05:02 | 49.38069 | 3.14495 | 30056 ft | 463 kts | 321° |
| 2026-05-08 05:02 | 49.42414 | 3.09604 | 30069 ft | 463 kts | 321° |
| 2026-05-08 05:03 | 49.47613 | 3.03739 | 30057 ft | 463 kts | 321° |
| 2026-05-08 05:03 | 49.52804 | 2.97864 | 30061 ft | 463 kts | 321° |
| 2026-05-08 05:04 | 49.57989 | 2.91981 | 30063 ft | 463 kts | 321° |
| 2026-05-08 05:04 | 49.63140 | 2.86123 | 30059 ft | 463 kts | 321° |
| 2026-05-08 05:05 | 49.68319 | 2.80215 | 30062 ft | 463 kts | 321° |
| 2026-05-08 05:05 | 49.73491 | 2.74298 | 30070 ft | 462 kts | 321° |
| 2026-05-08 05:06 | 49.78699 | 2.68338 | 30075 ft | 463 kts | 321° |
| 2026-05-08 05:06 | 49.83932 | 2.62521 | 30073 ft | 463 kts | 322° |
| 2026-05-08 05:07 | 49.89141 | 2.56769 | 30069 ft | 463 kts | 322° |
| 2026-05-08 05:07 | 49.94381 | 2.50945 | 30084 ft | 463 kts | 322° |
| 2026-05-08 05:08 | 49.99623 | 2.45088 | 30077 ft | 464 kts | 322° |
| 2026-05-08 05:08 | 50.04854 | 2.39223 | 30077 ft | 464 kts | 322° |
| 2026-05-08 05:09 | 50.10095 | 2.33332 | 30079 ft | 464 kts | 322° |
| 2026-05-08 05:09 | 50.15331 | 2.27431 | 30094 ft | 464 kts | 322° |
| 2026-05-08 05:10 | 50.23185 | 2.18546 | 30081 ft | 465 kts | 322° |
| 2026-05-08 05:11 | 50.28416 | 2.12609 | 30082 ft | 465 kts | 322° |
| 2026-05-08 05:11 | 50.33642 | 2.06663 | 30082 ft | 464 kts | 322° |
| 2026-05-08 05:12 | 50.38822 | 2.00614 | 30078 ft | 463 kts | 319° |
| 2026-05-08 05:12 | 50.43679 | 1.94005 | 30080 ft | 462 kts | 316° |
| 2026-05-08 05:13 | 50.48479 | 1.87287 | 30073 ft | 462 kts | 316° |
| 2026-05-08 05:13 | 50.53310 | 1.80630 | 30081 ft | 462 kts | 316° |
| 2026-05-08 05:14 | 50.58155 | 1.73987 | 30086 ft | 462 kts | 316° |
| 2026-05-08 05:14 | 50.62996 | 1.67333 | 30077 ft | 462 kts | 316° |
| 2026-05-08 05:15 | 50.67831 | 1.60663 | 30063 ft | 462 kts | 316° |
| 2026-05-08 05:15 | 50.72660 | 1.53977 | 30069 ft | 462 kts | 316° |
| 2026-05-08 05:16 | 50.77484 | 1.47284 | 30084 ft | 462 kts | 316° |
| 2026-05-08 05:16 | 50.82305 | 1.40580 | 30075 ft | 462 kts | 316° |
| 2026-05-08 05:17 | 50.87128 | 1.33860 | 30081 ft | 462 kts | 316° |
| 2026-05-08 05:17 | 50.91949 | 1.27123 | 30073 ft | 462 kts | 316° |
| 2026-05-08 05:18 | 50.96764 | 1.20372 | 30072 ft | 462 kts | 316° |
| 2026-05-08 05:18 | 51.01545 | 1.13649 | 30078 ft | 461 kts | 316° |
| 2026-05-08 05:19 | 51.06362 | 1.06890 | 30077 ft | 462 kts | 317° |
| 2026-05-08 05:19 | 51.11562 | 1.00854 | 30078 ft | 463 kts | 323° |
| 2026-05-08 05:20 | 51.16898 | 0.95107 | 30078 ft | 463 kts | 323° |
| 2026-05-08 05:20 | 51.22215 | 0.89287 | 30039 ft | 464 kts | 323° |
| 2026-05-08 05:21 | 51.27528 | 0.83386 | 30020 ft | 465 kts | 322° |
| 2026-05-08 05:21 | 51.32834 | 0.77456 | 30014 ft | 466 kts | 322° |
| 2026-05-08 05:22 | 51.38141 | 0.71507 | 30080 ft | 466 kts | 322° |
| 2026-05-08 05:22 | 51.43450 | 0.65542 | 30073 ft | 465 kts | 322° |
| 2026-05-08 05:23 | 51.48747 | 0.59576 | 30079 ft | 464 kts | 322° |
| 2026-05-08 05:23 | 51.54051 | 0.53582 | 30086 ft | 470 kts | 322° |
| 2026-05-08 05:24 | 51.59449 | 0.47461 | 30101 ft | 480 kts | 322° |
| 2026-05-08 05:24 | 51.64947 | 0.41212 | 30088 ft | 484 kts | 322° |
| 2026-05-08 05:25 | 51.70452 | 0.34940 | 30091 ft | 484 kts | 322° |
| 2026-05-08 05:25 | 51.75913 | 0.28696 | 30100 ft | 484 kts | 322° |
| 2026-05-08 05:26 | 51.81399 | 0.22404 | 30111 ft | 483 kts | 322° |
| 2026-05-08 05:26 | 51.86865 | 0.16115 | 30103 ft | 481 kts | 322° |
| 2026-05-08 05:27 | 51.92311 | 0.09829 | 30099 ft | 480 kts | 322° |
| 2026-05-08 05:27 | 51.97738 | 0.03549 | 30100 ft | 479 kts | 322° |
| 2026-05-08 05:28 | 52.03181 | -0.02684 | 30082 ft | 479 kts | 325° |
| 2026-05-08 05:28 | 52.09041 | -0.07911 | 30095 ft | 481 kts | 330° |
| 2026-05-08 05:29 | 52.14981 | -0.12951 | 30081 ft | 482 kts | 329° |
| 2026-05-08 05:29 | 52.20893 | -0.18131 | 30084 ft | 482 kts | 329° |
| 2026-05-08 05:30 | 52.26789 | -0.23348 | 30085 ft | 483 kts | 329° |
| 2026-05-08 05:30 | 52.32703 | -0.28583 | 30087 ft | 483 kts | 329° |
| 2026-05-08 05:31 | 52.38602 | -0.33816 | 30076 ft | 482 kts | 329° |
| 2026-05-08 05:31 | 52.44489 | -0.39053 | 30077 ft | 481 kts | 329° |
| 2026-05-08 05:32 | 52.50323 | -0.44262 | 30075 ft | 480 kts | 329° |
| 2026-05-08 05:32 | 52.56225 | -0.49548 | 30085 ft | 480 kts | 329° |
| 2026-05-08 05:33 | 52.62084 | -0.54811 | 30075 ft | 479 kts | 329° |
| 2026-05-08 05:33 | 52.67893 | -0.60046 | 30075 ft | 479 kts | 329° |
| 2026-05-08 05:34 | 52.73768 | -0.65356 | 30072 ft | 479 kts | 329° |
| 2026-05-08 05:34 | 52.79565 | -0.70612 | 30082 ft | 478 kts | 329° |
| 2026-05-08 05:35 | 52.85398 | -0.75917 | 30076 ft | 478 kts | 328° |
| 2026-05-08 05:35 | 52.91236 | -0.81245 | 30070 ft | 478 kts | 328° |
| 2026-05-08 05:36 | 52.97064 | -0.86577 | 30072 ft | 478 kts | 328° |
| 2026-05-08 05:36 | 53.02888 | -0.91921 | 30079 ft | 478 kts | 328° |
| 2026-05-08 05:37 | 53.08710 | -0.97270 | 30059 ft | 478 kts | 328° |
| 2026-05-08 05:37 | 53.14526 | -1.02629 | 30077 ft | 478 kts | 328° |
| 2026-05-08 05:38 | 53.20341 | -1.08006 | 30063 ft | 478 kts | 328° |
| 2026-05-08 05:38 | 53.26155 | -1.13399 | 30073 ft | 478 kts | 328° |
| 2026-05-08 05:39 | 53.31967 | -1.18808 | 30055 ft | 478 kts | 328° |
| 2026-05-08 05:39 | 53.37775 | -1.24230 | 30060 ft | 478 kts | 328° |
| 2026-05-08 05:40 | 53.43578 | -1.29665 | 30058 ft | 478 kts | 328° |
| 2026-05-08 05:40 | 53.49371 | -1.35132 | 30063 ft | 478 kts | 328° |
| 2026-05-08 05:41 | 53.55160 | -1.40617 | 30060 ft | 478 kts | 328° |
| 2026-05-08 05:41 | 53.60947 | -1.46115 | 30056 ft | 478 kts | 328° |
| 2026-05-08 05:42 | 53.66732 | -1.51625 | 30053 ft | 477 kts | 328° |
| 2026-05-08 05:42 | 53.72486 | -1.57218 | 30063 ft | 476 kts | 324° |
| 2026-05-08 05:43 | 53.76801 | -1.62906 | 30055 ft | 471 kts | 314° |
| 2026-05-08 05:43 | 53.82366 | -1.71706 | 30049 ft | 471 kts | 315° |
| 2026-05-08 05:44 | 53.86435 | -1.77966 | 30056 ft | 471 kts | 315° |
| 2026-05-08 05:44 | 53.91288 | -1.85435 | 30055 ft | 471 kts | 315° |
| 2026-05-08 05:45 | 53.96129 | -1.92926 | 30061 ft | 471 kts | 315° |
| 2026-05-08 05:45 | 54.00987 | -2.00392 | 30039 ft | 472 kts | 317° |
| 2026-05-08 05:46 | 54.06421 | -2.06591 | 30064 ft | 476 kts | 328° |
| 2026-05-08 05:46 | 54.12173 | -2.12183 | 30072 ft | 475 kts | 327° |
| 2026-05-08 05:47 | 54.17861 | -2.17872 | 30055 ft | 472 kts | 327° |
| 2026-05-08 05:47 | 54.23509 | -2.23573 | 30060 ft | 470 kts | 326° |
| 2026-05-08 05:48 | 54.29125 | -2.29256 | 30050 ft | 468 kts | 326° |
| 2026-05-08 05:48 | 54.34726 | -2.34940 | 30055 ft | 468 kts | 326° |
| 2026-05-08 05:49 | 54.40324 | -2.40638 | 30054 ft | 468 kts | 326° |
| 2026-05-08 05:49 | 54.45934 | -2.46366 | 30050 ft | 469 kts | 326° |
| 2026-05-08 05:50 | 54.51550 | -2.52118 | 30060 ft | 471 kts | 326° |
| 2026-05-08 05:50 | 54.57187 | -2.57911 | 30052 ft | 472 kts | 326° |
| 2026-05-08 05:51 | 54.62829 | -2.63728 | 30040 ft | 473 kts | 326° |
| 2026-05-08 05:51 | 54.68476 | -2.69567 | 30048 ft | 473 kts | 326° |
| 2026-05-08 05:52 | 54.74126 | -2.75433 | 30056 ft | 473 kts | 325° |
| 2026-05-08 05:52 | 54.79770 | -2.81307 | 30042 ft | 474 kts | 325° |
| 2026-05-08 05:53 | 54.85423 | -2.87210 | 30040 ft | 474 kts | 325° |
| 2026-05-08 05:53 | 54.91271 | -2.92458 | 30038 ft | 479 kts | 334° |
| 2026-05-08 05:54 | 54.97473 | -2.96749 | 30055 ft | 479 kts | 333° |
| 2026-05-08 05:54 | 55.03653 | -3.01164 | 30044 ft | 480 kts | 333° |
| 2026-05-08 05:55 | 55.09819 | -3.05660 | 30044 ft | 481 kts | 333° |
| 2026-05-08 05:55 | 55.15990 | -3.10187 | 30024 ft | 481 kts | 333° |
| 2026-05-08 05:56 | 55.22157 | -3.14721 | 30021 ft | 481 kts | 333° |
| 2026-05-08 05:56 | 55.28340 | -3.19282 | 30013 ft | 482 kts | 333° |
| 2026-05-08 05:57 | 55.34541 | -3.23867 | 30015 ft | 482 kts | 332° |
| 2026-05-08 05:57 | 55.40726 | -3.28459 | 30014 ft | 482 kts | 332° |
| 2026-05-08 05:58 | 55.46846 | -3.33187 | 30002 ft | 476 kts | 326° |
| 2026-05-08 05:58 | 55.49545 | -3.36478 | 30031 ft | 470 kts | 312° |
| 2026-05-08 05:58 | 55.51773 | -3.40676 | 30015 ft | 467 kts | 302° |
| 2026-05-08 05:59 | 55.55143 | -3.50324 | 30012 ft | 462 kts | 295° |
| 2026-05-08 05:59 | 55.58462 | -3.60086 | 30000 ft | 465 kts | 296° |
| 2026-05-08 06:00 | 55.61833 | -3.69858 | 30008 ft | 464 kts | 296° |
| 2026-05-08 06:00 | 55.65158 | -3.79540 | 29995 ft | 463 kts | 296° |
| 2026-05-08 06:01 | 55.68483 | -3.89282 | 30009 ft | 461 kts | 296° |
| 2026-05-08 06:01 | 55.71787 | -3.99008 | 30015 ft | 460 kts | 296° |
| 2026-05-08 06:02 | 55.75089 | -4.08770 | 30016 ft | 461 kts | 295° |
| 2026-05-08 06:02 | 55.78388 | -4.18556 | 30020 ft | 462 kts | 295° |
| 2026-05-08 06:03 | 55.81680 | -4.28364 | 30020 ft | 462 kts | 295° |
| 2026-05-08 06:03 | 55.84970 | -4.38200 | 30024 ft | 463 kts | 295° |
| 2026-05-08 06:04 | 55.88378 | -4.47946 | 30015 ft | 467 kts | 300° |
| 2026-05-08 06:04 | 55.92341 | -4.57150 | 30016 ft | 469 kts | 302° |
| 2026-05-08 06:05 | 55.96336 | -4.66318 | 30017 ft | 467 kts | 302° |
| 2026-05-08 06:05 | 56.00285 | -4.75530 | 29990 ft | 466 kts | 301° |
| 2026-05-08 06:06 | 56.04197 | -4.84768 | 29987 ft | 465 kts | 301° |
| 2026-05-08 06:06 | 56.08089 | -4.94013 | 30013 ft | 465 kts | 301° |
| 2026-05-08 06:07 | 56.11975 | -5.03289 | 29999 ft | 465 kts | 301° |
| 2026-05-08 06:07 | 56.15856 | -5.12574 | 29994 ft | 465 kts | 301° |
| 2026-05-08 06:08 | 56.19728 | -5.21877 | 30023 ft | 465 kts | 301° |
| 2026-05-08 06:08 | 56.23596 | -5.31203 | 29992 ft | 465 kts | 301° |
| 2026-05-08 06:09 | 56.27454 | -5.40537 | 29997 ft | 464 kts | 301° |
| 2026-05-08 06:09 | 56.31305 | -5.49890 | 29991 ft | 464 kts | 301° |
| 2026-05-08 06:10 | 56.35136 | -5.59241 | 29987 ft | 464 kts | 301° |
| 2026-05-08 06:10 | 56.38965 | -5.68618 | 30000 ft | 464 kts | 300° |
| 2026-05-08 06:11 | 56.42794 | -5.78030 | 30019 ft | 465 kts | 300° |
| 2026-05-08 06:11 | 56.46618 | -5.87461 | 29994 ft | 464 kts | 300° |
| 2026-05-08 06:12 | 56.50421 | -5.96880 | 29992 ft | 463 kts | 300° |
| 2026-05-08 06:12 | 56.54214 | -6.06313 | 29982 ft | 463 kts | 300° |
| 2026-05-08 06:13 | 56.57998 | -6.15754 | 29973 ft | 462 kts | 300° |
| 2026-05-08 06:13 | 56.61740 | -6.25142 | 29973 ft | 462 kts | 300° |
| 2026-05-08 06:14 | 56.65530 | -6.34680 | 29977 ft | 462 kts | 300° |
| 2026-05-08 06:14 | 56.69288 | -6.44169 | 29976 ft | 463 kts | 299° |
| 2026-05-08 06:15 | 56.73047 | -6.53702 | 29978 ft | 463 kts | 299° |
| 2026-05-08 06:15 | 56.76800 | -6.63255 | 29970 ft | 464 kts | 299° |
| 2026-05-08 06:16 | 56.80525 | -6.72775 | 29965 ft | 463 kts | 299° |
| 2026-05-08 06:16 | 56.84286 | -6.82426 | 29963 ft | 463 kts | 299° |
| 2026-05-08 06:17 | 56.89869 | -6.96822 | 29956 ft | 463 kts | 299° |
| 2026-05-08 06:17 | 56.93583 | -7.06447 | 30001 ft | 463 kts | 298° |
| 2026-05-08 06:18 | 56.97264 | -7.16023 | 29950 ft | 462 kts | 298° |
| 2026-05-08 06:18 | 57.00945 | -7.25637 | 29942 ft | 459 kts | 298° |
| 2026-05-08 06:19 | 57.04627 | -7.35293 | 29947 ft | 458 kts | 298° |
| 2026-05-08 06:19 | 57.08243 | -7.44815 | 29943 ft | 457 kts | 298° |
| 2026-05-08 06:20 | 57.11873 | -7.54414 | 29944 ft | 457 kts | 297° |
| 2026-05-08 06:20 | 57.15494 | -7.64028 | 29978 ft | 458 kts | 297° |
| 2026-05-08 06:21 | 57.19122 | -7.73697 | 29981 ft | 458 kts | 297° |
| 2026-05-08 06:21 | 57.22725 | -7.83326 | 29944 ft | 453 kts | 297° |
| 2026-05-08 06:22 | 57.26301 | -7.92934 | 29932 ft | 453 kts | 297° |
| 2026-05-08 06:22 | 57.29864 | -8.02545 | 29936 ft | 453 kts | 297° |
| 2026-05-08 06:23 | 57.33420 | -8.12179 | 29933 ft | 453 kts | 297° |
| 2026-05-08 06:23 | 57.36371 | -8.20199 | 29929 ft | 454 kts | 297° |
| 2026-05-08 06:24 | 57.39921 | -8.29885 | 29946 ft | 455 kts | 297° |
| 2026-05-08 06:24 | 57.43476 | -8.39619 | 29925 ft | 455 kts | 297° |
| 2026-05-08 06:25 | 57.47023 | -8.49375 | 29935 ft | 456 kts | 297° |
| 2026-05-08 06:25 | 57.50575 | -8.59179 | 29931 ft | 456 kts | 297° |
| 2026-05-08 06:26 | 57.54111 | -8.68982 | 29925 ft | 456 kts | 297° |
| 2026-05-08 06:26 | 57.57637 | -8.78798 | 29926 ft | 456 kts | 297° |
| 2026-05-08 06:27 | 57.61157 | -8.88637 | 29928 ft | 455 kts | 297° |
| 2026-05-08 06:27 | 57.64669 | -8.98495 | 29946 ft | 456 kts | 297° |
| 2026-05-08 06:28 | 57.68178 | -9.08385 | 29923 ft | 457 kts | 297° |
| 2026-05-08 06:28 | 57.71682 | -9.18303 | 29932 ft | 457 kts | 297° |
| 2026-05-08 06:29 | 57.75187 | -9.28263 | 29936 ft | 458 kts | 297° |
| 2026-05-08 06:29 | 57.78681 | -9.38236 | 29929 ft | 458 kts | 297° |
| 2026-05-08 06:30 | 57.82172 | -9.48239 | 29931 ft | 458 kts | 297° |
| 2026-05-08 06:30 | 57.85651 | -9.58251 | 29954 ft | 458 kts | 297° |
| 2026-05-08 06:31 | 57.89129 | -9.68306 | 29933 ft | 459 kts | 297° |
| 2026-05-08 06:31 | 57.92584 | -9.78331 | 29941 ft | 459 kts | 297° |
| 2026-05-08 06:32 | 57.96076 | -9.88505 | 29945 ft | 460 kts | 298° |
| 2026-05-08 06:32 | 57.99682 | -9.98388 | 29928 ft | 464 kts | 304° |
| 2026-05-08 06:33 | 58.04303 | -10.07133 | 29941 ft | 472 kts | 315° |
| 2026-05-08 06:33 | 58.09346 | -10.15052 | 29956 ft | 472 kts | 315° |
| 2026-05-08 06:34 | 58.14324 | -10.23042 | 29944 ft | 472 kts | 315° |
| 2026-05-08 06:34 | 58.19308 | -10.31117 | 29932 ft | 471 kts | 314° |
| 2026-05-08 06:35 | 58.24281 | -10.39211 | 29944 ft | 471 kts | 314° |
| 2026-05-08 06:35 | 58.29247 | -10.47322 | 29944 ft | 471 kts | 314° |
| 2026-05-08 06:36 | 58.34206 | -10.55451 | 29941 ft | 470 kts | 314° |
| 2026-05-08 06:36 | 58.39156 | -10.63595 | 29953 ft | 470 kts | 315° |
| 2026-05-08 06:37 | 58.44094 | -10.71750 | 29940 ft | 469 kts | 315° |
| 2026-05-08 06:37 | 58.49017 | -10.79912 | 29951 ft | 468 kts | 315° |
| 2026-05-08 06:38 | 58.53959 | -10.88137 | 29951 ft | 467 kts | 314° |
| 2026-05-08 06:38 | 58.58827 | -10.96272 | 29965 ft | 468 kts | 315° |
| 2026-05-08 06:39 | 58.63727 | -11.04491 | 29961 ft | 468 kts | 315° |
| 2026-05-08 06:39 | 58.68621 | -11.12729 | 29966 ft | 467 kts | 314° |
| 2026-05-08 06:40 | 58.73512 | -11.20999 | 29962 ft | 468 kts | 314° |
| 2026-05-08 06:40 | 58.78393 | -11.29281 | 29959 ft | 468 kts | 314° |
| 2026-05-08 06:41 | 58.83269 | -11.37587 | 29968 ft | 468 kts | 314° |
| 2026-05-08 06:41 | 58.88146 | -11.45930 | 29957 ft | 467 kts | 315° |
| 2026-05-08 06:42 | 58.93006 | -11.54273 | 29962 ft | 466 kts | 315° |
| 2026-05-08 06:42 | 58.97826 | -11.62583 | 29957 ft | 463 kts | 314° |
| 2026-05-08 06:43 | 59.02629 | -11.70892 | 29954 ft | 461 kts | 314° |
| 2026-05-08 06:43 | 59.07416 | -11.79210 | 29997 ft | 462 kts | 315° |
| 2026-05-08 06:44 | 59.12211 | -11.87572 | 29977 ft | 463 kts | 315° |
| 2026-05-08 06:44 | 59.16973 | -11.95908 | 29968 ft | 459 kts | 314° |
| 2026-05-08 06:45 | 59.21720 | -12.04264 | 29970 ft | 461 kts | 314° |
| 2026-05-08 06:45 | 59.26507 | -12.12703 | 29976 ft | 465 kts | 315° |
| 2026-05-08 06:46 | 59.31288 | -12.21173 | 29977 ft | 460 kts | 314° |
| 2026-05-08 06:46 | 59.36003 | -12.29545 | 29995 ft | 457 kts | 314° |
| 2026-05-08 06:47 | 59.40736 | -12.38004 | 29978 ft | 463 kts | 315° |
| 2026-05-08 06:47 | 59.45446 | -12.46453 | 29982 ft | 455 kts | 314° |
| 2026-05-08 06:48 | 59.50080 | -12.54792 | 29970 ft | 452 kts | 314° |
| 2026-05-08 06:48 | 59.54746 | -12.63233 | 29996 ft | 459 kts | 315° |
| 2026-05-08 06:49 | 59.59468 | -12.71791 | 29990 ft | 460 kts | 316° |
| 2026-05-08 06:49 | 59.64136 | -12.80285 | 29994 ft | 453 kts | 314° |
| 2026-05-08 06:50 | 59.68775 | -12.88776 | 29990 ft | 455 kts | 315° |
| 2026-05-08 06:50 | 59.73459 | -12.97368 | 30027 ft | 460 kts | 314° |
| 2026-05-08 06:51 | 59.78127 | -13.05956 | 30025 ft | 454 kts | 314° |
| 2026-05-08 06:51 | 59.82728 | -13.14470 | 30027 ft | 454 kts | 315° |
| 2026-05-08 06:52 | 59.87363 | -13.23089 | 30025 ft | 459 kts | 315° |
| 2026-05-08 06:52 | 59.92026 | -13.31794 | 30031 ft | 458 kts | 315° |
| 2026-05-08 06:53 | 59.96616 | -13.40386 | 30012 ft | 447 kts | 316° |
| 2026-05-08 06:53 | 60.01177 | -13.48963 | 30021 ft | 454 kts | 316° |
| 2026-05-08 06:54 | 60.05807 | -13.57704 | 30055 ft | 458 kts | 316° |
| 2026-05-08 06:54 | 60.10398 | -13.66402 | 30031 ft | 450 kts | 316° |
| 2026-05-08 06:55 | 60.14945 | -13.75056 | 30042 ft | 452 kts | 316° |
| 2026-05-08 06:55 | 60.19527 | -13.83811 | 30041 ft | 459 kts | 316° |
| 2026-05-08 06:56 | 60.24101 | -13.92583 | 30033 ft | 451 kts | 316° |
| 2026-05-08 06:56 | 60.28603 | -14.01254 | 30032 ft | 448 kts | 316° |
| 2026-05-08 06:57 | 60.33134 | -14.10021 | 30038 ft | 454 kts | 316° |
| 2026-05-08 06:57 | 60.37705 | -14.18896 | 30072 ft | 455 kts | 316° |
| 2026-05-08 06:58 | 60.42246 | -14.27747 | 30057 ft | 450 kts | 316° |
| 2026-05-08 06:58 | 60.46732 | -14.36531 | 30076 ft | 450 kts | 316° |
| 2026-05-08 06:59 | 60.51264 | -14.45440 | 30075 ft | 458 kts | 316° |
| 2026-05-08 06:59 | 60.55853 | -14.54503 | 30061 ft | 454 kts | 317° |
| 2026-05-08 07:00 | 60.60304 | -14.63325 | 30091 ft | 447 kts | 316° |
| 2026-05-08 07:00 | 60.64778 | -14.72222 | 30063 ft | 451 kts | 316° |
| 2026-05-08 07:01 | 60.69306 | -14.81272 | 30097 ft | 457 kts | 317° |
| 2026-05-08 07:01 | 60.73816 | -14.90325 | 30100 ft | 450 kts | 316° |
| 2026-05-08 07:02 | 60.78233 | -14.99229 | 30088 ft | 448 kts | 316° |
| 2026-05-08 07:02 | 60.81933 | -15.06708 | 30110 ft | 452 kts | 316° |
| 2026-05-08 07:03 | 60.86426 | -15.15823 | 30107 ft | 452 kts | 316° |
| 2026-05-08 07:03 | 60.90879 | -15.24902 | 30083 ft | 447 kts | 316° |
| 2026-05-08 07:04 | 60.95278 | -15.33912 | 30118 ft | 448 kts | 316° |
| 2026-05-08 07:04 | 60.99732 | -15.43064 | 30118 ft | 457 kts | 316° |
| 2026-05-08 07:05 | 61.04209 | -15.52313 | 30111 ft | 454 kts | 317° |
| 2026-05-08 07:05 | 61.08648 | -15.61519 | 30119 ft | 452 kts | 316° |
| 2026-05-08 07:06 | 61.13084 | -15.70755 | 30113 ft | 453 kts | 316° |
| 2026-05-08 07:06 | 61.17533 | -15.80053 | 30136 ft | 455 kts | 316° |
| 2026-05-08 07:07 | 61.21987 | -15.89402 | 30131 ft | 455 kts | 316° |
| 2026-05-08 07:07 | 61.26423 | -15.98757 | 30121 ft | 454 kts | 316° |
| 2026-05-08 07:08 | 61.30848 | -16.08139 | 30130 ft | 454 kts | 316° |
| 2026-05-08 07:08 | 61.35266 | -16.17527 | 30147 ft | 453 kts | 316° |
| 2026-05-08 07:09 | 61.39676 | -16.26946 | 30146 ft | 454 kts | 316° |
| 2026-05-08 07:09 | 61.44079 | -16.36392 | 30103 ft | 454 kts | 316° |
| 2026-05-08 07:10 | 61.48472 | -16.45858 | 30136 ft | 453 kts | 316° |
| 2026-05-08 07:10 | 61.52861 | -16.55355 | 30141 ft | 453 kts | 316° |
| 2026-05-08 07:11 | 61.57229 | -16.64847 | 30152 ft | 451 kts | 316° |
| 2026-05-08 07:11 | 61.61567 | -16.74317 | 30148 ft | 449 kts | 316° |
| 2026-05-08 07:12 | 61.65882 | -16.83777 | 30148 ft | 447 kts | 316° |
| 2026-05-08 07:12 | 61.70149 | -16.93169 | 30153 ft | 447 kts | 316° |
| 2026-05-08 07:13 | 61.74470 | -17.02722 | 30159 ft | 447 kts | 316° |
| 2026-05-08 07:13 | 61.78759 | -17.12245 | 30159 ft | 447 kts | 316° |
| 2026-05-08 07:14 | 61.83039 | -17.21789 | 30159 ft | 447 kts | 316° |
| 2026-05-08 07:14 | 61.87315 | -17.31367 | 30160 ft | 447 kts | 316° |
| 2026-05-08 07:15 | 61.91572 | -17.40945 | 30162 ft | 446 kts | 316° |
| 2026-05-08 07:15 | 61.95823 | -17.50550 | 30156 ft | 445 kts | 316° |
| 2026-05-08 07:16 | 62.00055 | -17.60155 | 30158 ft | 444 kts | 316° |
| 2026-05-08 07:16 | 62.04269 | -17.69760 | 30161 ft | 443 kts | 316° |
| 2026-05-08 07:17 | 62.08466 | -17.79367 | 30164 ft | 442 kts | 316° |
| 2026-05-08 07:17 | 62.12655 | -17.88997 | 30169 ft | 442 kts | 316° |
| 2026-05-08 07:18 | 62.16826 | -17.98629 | 30178 ft | 442 kts | 316° |
| 2026-05-08 07:18 | 62.20996 | -18.08300 | 30177 ft | 442 kts | 316° |
| 2026-05-08 07:19 | 62.25163 | -18.18006 | 30170 ft | 442 kts | 316° |
| 2026-05-08 07:19 | 62.29324 | -18.27743 | 30167 ft | 442 kts | 316° |
| 2026-05-08 07:20 | 62.33485 | -18.37520 | 30166 ft | 443 kts | 316° |
| 2026-05-08 07:20 | 62.37634 | -18.47314 | 30172 ft | 443 kts | 316° |
| 2026-05-08 07:21 | 62.41776 | -18.57136 | 30192 ft | 443 kts | 316° |
| 2026-05-08 07:21 | 62.45907 | -18.66973 | 30179 ft | 441 kts | 316° |
| 2026-05-08 07:22 | 62.50020 | -18.76815 | 30176 ft | 440 kts | 316° |
| 2026-05-08 07:22 | 62.54119 | -18.86663 | 30186 ft | 439 kts | 316° |
| 2026-05-08 07:23 | 62.58190 | -18.96490 | 30185 ft | 438 kts | 316° |
| 2026-05-08 07:23 | 62.62229 | -19.06281 | 30191 ft | 437 kts | 316° |
| 2026-05-08 07:24 | 62.66279 | -19.16139 | 30187 ft | 437 kts | 316° |
| 2026-05-08 07:24 | 62.70329 | -19.26045 | 30189 ft | 437 kts | 316° |
| 2026-05-08 07:25 | 62.74369 | -19.35969 | 30198 ft | 437 kts | 316° |
| 2026-05-08 07:26 | 62.80406 | -19.50887 | 30197 ft | 437 kts | 316° |
| 2026-05-08 07:26 | 62.84418 | -19.60854 | 30202 ft | 436 kts | 316° |
| 2026-05-08 07:27 | 62.88422 | -19.70845 | 30204 ft | 436 kts | 316° |
| 2026-05-08 07:27 | 62.92443 | -19.80928 | 30204 ft | 436 kts | 315° |
| 2026-05-08 07:28 | 62.96393 | -19.90871 | 30199 ft | 433 kts | 316° |
| 2026-05-08 07:28 | 63.00354 | -20.00754 | 30213 ft | 427 kts | 319° |
| 2026-05-08 07:29 | 63.04671 | -20.09525 | 30228 ft | 420 kts | 323° |
| 2026-05-08 07:29 | 63.09020 | -20.18112 | 30232 ft | 419 kts | 323° |
| 2026-05-08 07:30 | 63.13351 | -20.26770 | 30238 ft | 420 kts | 322° |
| 2026-05-08 07:30 | 63.17671 | -20.35485 | 30248 ft | 421 kts | 322° |
| 2026-05-08 07:31 | 63.22001 | -20.44273 | 30255 ft | 422 kts | 322° |
| 2026-05-08 07:31 | 63.26329 | -20.53098 | 30265 ft | 423 kts | 322° |
| 2026-05-08 07:32 | 63.30661 | -20.61971 | 30221 ft | 424 kts | 322° |
| 2026-05-08 07:32 | 63.34992 | -20.70879 | 30266 ft | 424 kts | 322° |
| 2026-05-08 07:33 | 63.39294 | -20.79764 | 30261 ft | 424 kts | 322° |
| 2026-05-08 07:33 | 63.43609 | -20.88716 | 30263 ft | 423 kts | 322° |
| 2026-05-08 07:34 | 63.47906 | -20.97671 | 30260 ft | 421 kts | 322° |
| 2026-05-08 07:34 | 63.52160 | -21.06571 | 30265 ft | 417 kts | 322° |
| 2026-05-08 07:35 | 63.56388 | -21.15456 | 30274 ft | 415 kts | 322° |
| 2026-05-08 07:35 | 63.60590 | -21.24320 | 30277 ft | 414 kts | 322° |
| 2026-05-08 07:36 | 63.64774 | -21.33188 | 30271 ft | 411 kts | 323° |
| 2026-05-08 07:36 | 63.68909 | -21.41990 | 30282 ft | 407 kts | 323° |
| 2026-05-08 07:37 | 63.73009 | -21.50752 | 30275 ft | 404 kts | 323° |
| 2026-05-08 07:37 | 63.77083 | -21.59490 | 30303 ft | 404 kts | 323° |
| 2026-05-08 07:38 | 63.81159 | -21.68267 | 30304 ft | 405 kts | 322° |
| 2026-05-08 07:38 | 63.85242 | -21.77099 | 30311 ft | 406 kts | 322° |
| 2026-05-08 07:39 | 63.89332 | -21.85989 | 30315 ft | 407 kts | 322° |
| 2026-05-08 07:39 | 63.93425 | -21.94921 | 30292 ft | 409 kts | 322° |
| 2026-05-08 07:40 | 63.97523 | -22.03906 | 30308 ft | 408 kts | 322° |
| 2026-05-08 07:40 | 64.01597 | -22.12876 | 30288 ft | 406 kts | 322° |
| 2026-05-08 07:41 | 64.05618 | -22.21766 | 30290 ft | 404 kts | 322° |
| 2026-05-08 07:41 | 64.09641 | -22.30697 | 30295 ft | 402 kts | 322° |
| 2026-05-08 07:42 | 64.13647 | -22.39628 | 30297 ft | 402 kts | 322° |
| 2026-05-08 07:42 | 64.17000 | -22.47130 | 30302 ft | 402 kts | 322° |
| 2026-05-08 07:43 | 64.21000 | -22.56115 | 30294 ft | 403 kts | 321° |
| 2026-05-08 07:43 | 64.24999 | -22.65139 | 30307 ft | 403 kts | 321° |
| 2026-05-08 07:44 | 64.29000 | -22.74207 | 30307 ft | 404 kts | 321° |
| 2026-05-08 07:44 | 64.33003 | -22.83316 | 30304 ft | 405 kts | 321° |
| 2026-05-08 07:45 | 64.37001 | -22.92457 | 30271 ft | 404 kts | 320° |
| 2026-05-08 07:45 | 64.40985 | -23.01605 | 30297 ft | 405 kts | 320° |
| 2026-05-08 07:46 | 64.44952 | -23.10750 | 30286 ft | 405 kts | 320° |
| 2026-05-08 07:46 | 64.48944 | -23.19996 | 30310 ft | 406 kts | 320° |
| 2026-05-08 07:47 | 64.52938 | -23.29286 | 30299 ft | 407 kts | 320° |
| 2026-05-08 07:47 | 64.56932 | -23.38616 | 30295 ft | 407 kts | 320° |
| 2026-05-08 07:48 | 64.60925 | -23.47986 | 30303 ft | 407 kts | 320° |
| 2026-05-08 07:48 | 64.64905 | -23.57370 | 30298 ft | 407 kts | 320° |
| 2026-05-08 07:49 | 64.68877 | -23.66772 | 30286 ft | 406 kts | 319° |
| 2026-05-08 07:49 | 64.72842 | -23.76201 | 30294 ft | 406 kts | 319° |
| 2026-05-08 07:50 | 64.76793 | -23.85638 | 30283 ft | 405 kts | 319° |
| 2026-05-08 07:50 | 64.80730 | -23.95085 | 30296 ft | 405 kts | 319° |
| 2026-05-08 07:51 | 64.84673 | -24.04587 | 30285 ft | 406 kts | 319° |
| 2026-05-08 07:51 | 64.88606 | -24.14106 | 30287 ft | 406 kts | 319° |
| 2026-05-08 07:52 | 64.92533 | -24.23656 | 30269 ft | 406 kts | 319° |
| 2026-05-08 07:52 | 64.96429 | -24.33171 | 30282 ft | 406 kts | 318° |
| 2026-05-08 07:53 | 65.00346 | -24.42781 | 30276 ft | 406 kts | 318° |
| 2026-05-08 07:53 | 65.04258 | -24.52422 | 30277 ft | 406 kts | 318° |
| 2026-05-08 07:54 | 65.08162 | -24.62088 | 30261 ft | 405 kts | 317° |
| 2026-05-08 07:54 | 65.12057 | -24.71775 | 30267 ft | 406 kts | 317° |
| 2026-05-08 07:55 | 65.15952 | -24.81504 | 30276 ft | 406 kts | 317° |
| 2026-05-08 07:55 | 65.19848 | -24.91280 | 30273 ft | 407 kts | 317° |
| 2026-05-08 07:56 | 65.23750 | -25.01121 | 30272 ft | 408 kts | 317° |
| 2026-05-08 07:56 | 65.27647 | -25.10990 | 30273 ft | 409 kts | 317° |
| 2026-05-08 07:57 | 65.31550 | -25.20922 | 30269 ft | 409 kts | 316° |
| 2026-05-08 07:57 | 65.35443 | -25.30875 | 30273 ft | 409 kts | 316° |
| 2026-05-08 07:58 | 65.39354 | -25.40920 | 30272 ft | 409 kts | 316° |
| 2026-05-08 07:58 | 65.43206 | -25.50857 | 30265 ft | 409 kts | 316° |
| 2026-05-08 07:59 | 65.47076 | -25.60893 | 30267 ft | 409 kts | 316° |
| 2026-05-08 07:59 | 65.50941 | -25.70961 | 30264 ft | 409 kts | 316° |
| 2026-05-08 08:00 | 65.54802 | -25.81063 | 30264 ft | 410 kts | 316° |
| 2026-05-08 08:00 | 65.58656 | -25.91197 | 30269 ft | 410 kts | 316° |
| 2026-05-08 08:01 | 65.62505 | -26.01364 | 30267 ft | 410 kts | 315° |
| 2026-05-08 08:01 | 65.66349 | -26.11567 | 30264 ft | 410 kts | 315° |
| 2026-05-08 08:02 | 65.70188 | -26.21804 | 30261 ft | 410 kts | 315° |
| 2026-05-08 08:02 | 65.74046 | -26.32143 | 30264 ft | 410 kts | 315° |
| 2026-05-08 08:03 | 65.77853 | -26.42390 | 30229 ft | 410 kts | 314° |
| 2026-05-08 08:03 | 65.81678 | -26.52736 | 30261 ft | 412 kts | 314° |
| 2026-05-08 08:04 | 65.85515 | -26.63168 | 30270 ft | 414 kts | 314° |
| 2026-05-08 08:04 | 65.89364 | -26.73679 | 30257 ft | 416 kts | 313° |
| 2026-05-08 08:05 | 65.93220 | -26.84267 | 30267 ft | 417 kts | 313° |
| 2026-05-08 08:05 | 65.97081 | -26.94917 | 30263 ft | 418 kts | 313° |
| 2026-05-08 08:06 | 66.00937 | -27.05608 | 30266 ft | 418 kts | 313° |
| 2026-05-08 08:06 | 66.04778 | -27.16310 | 30265 ft | 417 kts | 313° |
| 2026-05-08 08:07 | 66.08614 | -27.27051 | 30262 ft | 417 kts | 313° |
| 2026-05-08 08:07 | 66.12434 | -27.37794 | 30260 ft | 416 kts | 313° |
| 2026-05-08 08:08 | 66.16247 | -27.48578 | 30265 ft | 417 kts | 312° |
| 2026-05-08 08:08 | 66.20063 | -27.59423 | 30268 ft | 418 kts | 312° |
| 2026-05-08 08:09 | 66.23874 | -27.70308 | 30269 ft | 418 kts | 312° |
| 2026-05-08 08:09 | 66.27680 | -27.81233 | 30262 ft | 419 kts | 312° |
| 2026-05-08 08:10 | 66.31487 | -27.92214 | 30266 ft | 419 kts | 312° |
| 2026-05-08 08:10 | 66.35291 | -28.03245 | 30266 ft | 419 kts | 311° |
| 2026-05-08 08:11 | 66.39088 | -28.14309 | 30269 ft | 420 kts | 311° |
| 2026-05-08 08:11 | 66.42886 | -28.25438 | 30264 ft | 421 kts | 311° |
| 2026-05-08 08:12 | 66.46652 | -28.36527 | 30265 ft | 421 kts | 311° |
| 2026-05-08 08:12 | 66.50434 | -28.47721 | 30264 ft | 422 kts | 311° |
| 2026-05-08 08:13 | 66.54219 | -28.58979 | 30264 ft | 422 kts | 311° |
| 2026-05-08 08:13 | 66.58012 | -28.70321 | 30270 ft | 422 kts | 311° |
| 2026-05-08 08:14 | 66.61759 | -28.81582 | 30271 ft | 422 kts | 310° |
| 2026-05-08 08:14 | 66.65524 | -28.92962 | 30266 ft | 423 kts | 310° |
| 2026-05-08 08:15 | 66.69282 | -29.04379 | 30267 ft | 423 kts | 310° |
| 2026-05-08 08:15 | 66.73039 | -29.15850 | 30276 ft | 424 kts | 310° |
| 2026-05-08 08:16 | 66.76789 | -29.27360 | 30275 ft | 424 kts | 310° |
| 2026-05-08 08:16 | 66.80530 | -29.38904 | 30274 ft | 424 kts | 310° |
| 2026-05-08 08:17 | 66.84269 | -29.50506 | 30279 ft | 424 kts | 310° |
| 2026-05-08 08:17 | 66.88005 | -29.62158 | 30279 ft | 425 kts | 310° |
| 2026-05-08 08:18 | 66.91731 | -29.73842 | 30282 ft | 425 kts | 309° |
| 2026-05-08 08:18 | 66.95451 | -29.85567 | 30283 ft | 425 kts | 309° |
| 2026-05-08 08:19 | 66.99159 | -29.97317 | 30284 ft | 425 kts | 309° |
| 2026-05-08 08:19 | 67.02541 | -30.09752 | 30295 ft | 426 kts | 303° |
| 2026-05-08 08:20 | 67.05685 | -30.22621 | 30288 ft | 426 kts | 303° |
| 2026-05-08 08:20 | 67.08822 | -30.35455 | 30276 ft | 428 kts | 302° |
| 2026-05-08 08:21 | 67.12030 | -30.48548 | 30297 ft | 433 kts | 302° |
| 2026-05-08 08:21 | 67.14705 | -30.59494 | 30301 ft | 436 kts | 302° |
| 2026-05-08 08:22 | 67.18461 | -30.74950 | 30298 ft | 439 kts | 302° |
| 2026-05-08 08:22 | 67.21161 | -30.86125 | 30295 ft | 438 kts | 302° |
| 2026-05-08 08:23 | 67.24368 | -30.99477 | 30305 ft | 437 kts | 302° |
| 2026-05-08 08:23 | 67.27560 | -31.12848 | 30307 ft | 436 kts | 302° |
| 2026-05-08 08:24 | 67.30731 | -31.26214 | 30312 ft | 435 kts | 301° |
| 2026-05-08 08:24 | 67.33888 | -31.39603 | 30310 ft | 435 kts | 301° |
| 2026-05-08 08:25 | 67.37033 | -31.53024 | 30310 ft | 435 kts | 301° |
| 2026-05-08 08:25 | 67.40167 | -31.66481 | 30322 ft | 435 kts | 301° |
| 2026-05-08 08:26 | 67.43288 | -31.79968 | 30327 ft | 436 kts | 301° |
| 2026-05-08 08:26 | 67.46412 | -31.93548 | 30320 ft | 437 kts | 301° |
| 2026-05-08 08:27 | 67.49527 | -32.07177 | 30325 ft | 438 kts | 301° |
| 2026-05-08 08:27 | 67.52643 | -32.20899 | 30327 ft | 441 kts | 300° |
| 2026-05-08 08:28 | 67.55781 | -32.34807 | 30341 ft | 445 kts | 300° |
| 2026-05-08 08:28 | 67.58928 | -32.48842 | 30337 ft | 448 kts | 300° |
| 2026-05-08 08:29 | 67.62074 | -32.62965 | 30326 ft | 448 kts | 300° |
| 2026-05-08 08:29 | 67.65207 | -32.77119 | 30330 ft | 448 kts | 299° |